createdAt,value
2022-08-14T00:01:54.472Z,8.05
2022-08-14T00:04:35.033Z,7.75
2022-08-14T00:07:10.759Z,14.97
2022-08-14T00:09:56.414Z,9.77
2022-08-14T00:12:33.818Z,8.02
2022-08-14T00:15:18.779Z,8.82
2022-08-14T00:17:47.863Z,7.85
2022-08-14T00:20:30.271Z,9.33
2022-08-14T00:23:14.475Z,6.63
2022-08-14T00:25:53.894Z,9.40
2022-08-14T00:28:35.214Z,8.85
2022-08-14T00:31:04.941Z,9.02
2022-08-14T00:33:51.545Z,11.47
2022-08-14T00:36:36.954Z,9.05
2022-08-14T00:39:09.498Z,9.45
2022-08-14T00:41:38.799Z,8.40
2022-08-14T00:44:06.855Z,9.93
2022-08-14T00:46:36.395Z,11.90
2022-08-14T00:49:04.892Z,8.85
2022-08-14T00:51:34.800Z,9.77
2022-08-14T00:54:11.134Z,10.00
2022-08-14T00:56:54.799Z,10.02
2022-08-14T00:59:28.693Z,9.03
2022-08-14T01:02:00.457Z,10.57
2022-08-14T01:04:51.258Z,9.13
2022-08-14T01:07:21.286Z,8.85
2022-08-14T01:09:56.830Z,10.35
2022-08-14T01:12:27.077Z,9.70
2022-08-14T01:15:01.903Z,8.73
2022-08-14T01:17:51.820Z,10.50
2022-08-14T01:20:40.496Z,10.77
2022-08-14T01:23:15.660Z,13.05
2022-08-14T01:25:44.227Z,11.10
2022-08-14T01:28:46.650Z,11.25
2022-08-14T01:31:00.755Z,11.35
2022-08-14T01:33:30.041Z,10.43
2022-08-14T01:36:05.518Z,10.90
2022-08-14T01:38:37.216Z,10.17
2022-08-14T01:41:15.090Z,10.27
2022-08-14T01:43:56.613Z,10.88
2022-08-14T01:46:25.238Z,12.27
2022-08-14T01:49:04.077Z,10.95
2022-08-14T01:51:35.139Z,10.70
2022-08-14T01:54:14.436Z,9.77
2022-08-14T01:56:44.596Z,9.93
2022-08-14T01:59:18.571Z,10.70
2022-08-14T02:01:58.186Z,8.48
2022-08-14T02:04:55.580Z,10.10
2022-08-14T02:07:34.807Z,10.13
2022-08-14T02:10:06.838Z,9.32
2022-08-14T02:12:33.983Z,9.57
2022-08-14T02:15:01.993Z,11.55
2022-08-14T02:17:30.689Z,9.00
2022-08-14T02:19:58.534Z,10.10
2022-08-14T02:22:32.374Z,9.52
2022-08-14T02:24:59.757Z,14.65
2022-08-14T02:28:24.028Z,10.90
2022-08-14T02:30:16.562Z,11.10
2022-08-14T02:32:44.701Z,11.18
2022-08-14T02:35:18.932Z,9.35
2022-08-14T02:37:49.933Z,10.63
2022-08-14T02:40:19.104Z,10.50
2022-08-14T02:42:55.011Z,10.03
2022-08-14T02:45:38.333Z,11.20
2022-08-14T02:49:02.691Z,11.40
2022-08-14T02:51:01.432Z,11.25
2022-08-14T02:53:33.254Z,13.43
2022-08-14T02:56:03.178Z,11.47
2022-08-14T02:58:51.190Z,12.00
2022-08-14T03:01:24.055Z,10.65
2022-08-14T03:03:53.411Z,8.60
2022-08-14T03:06:48.874Z,12.55
2022-08-14T03:09:11.340Z,12.93
2022-08-14T03:11:39.671Z,10.20
2022-08-14T03:14:12.461Z,13.45
2022-08-14T03:16:43.355Z,9.68
2022-08-14T03:19:11.773Z,10.73
2022-08-14T03:21:39.795Z,9.17
2022-08-14T03:24:21.394Z,10.63
2022-08-14T03:26:49.987Z,9.98
2022-08-14T03:29:26.554Z,10.32
2022-08-14T03:31:53.771Z,11.70
2022-08-14T03:34:24.765Z,13.50
2022-08-14T03:37:38.207Z,12.30
2022-08-14T03:39:59.040Z,12.15
2022-08-14T03:42:35.871Z,11.63
2022-08-14T03:45:27.350Z,10.35
2022-08-14T03:47:58.271Z,11.10
2022-08-14T03:50:31.677Z,12.50
2022-08-14T03:53:01.660Z,15.73
2022-08-14T03:55:30.251Z,10.75
2022-08-14T03:57:58.050Z,10.82
2022-08-14T04:00:42.701Z,12.33
2022-08-14T04:03:16.500Z,12.48
2022-08-14T04:05:48.558Z,10.73
2022-08-14T04:08:30.074Z,12.93
2022-08-14T04:11:02.014Z,13.27
2022-08-14T04:13:35.405Z,10.67
2022-08-14T04:16:10.249Z,11.32
2022-08-14T04:18:45.304Z,10.82
2022-08-14T04:21:13.965Z,11.10
2022-08-14T04:23:43.887Z,13.07
2022-08-14T04:26:14.780Z,9.67
2022-08-14T04:29:07.075Z,11.55
2022-08-14T04:33:01.291Z,12.30
2022-08-14T04:34:24.060Z,11.57
2022-08-14T04:37:12.961Z,14.10
2022-08-14T04:39:58.856Z,11.60
2022-08-14T04:42:47.631Z,13.32
2022-08-14T04:45:23.681Z,14.30
2022-08-14T04:48:10.679Z,13.05
2022-08-14T04:50:53.940Z,11.48
2022-08-14T04:53:35.550Z,11.00
2022-08-14T04:56:06.115Z,10.60
2022-08-14T04:58:39.000Z,11.68
2022-08-14T05:01:12.933Z,15.73
2022-08-14T05:03:46.928Z,11.98
2022-08-14T05:06:37.769Z,10.90
2022-08-14T05:09:01.034Z,12.32
2022-08-14T05:11:28.094Z,11.93
2022-08-14T05:14:16.949Z,11.40
2022-08-14T05:16:44.164Z,13.38
2022-08-14T05:19:18.284Z,11.47
2022-08-14T05:21:56.922Z,10.98
2022-08-14T05:24:25.995Z,11.82
2022-08-14T05:26:53.277Z,10.93
2022-08-14T05:29:20.759Z,12.00
2022-08-14T05:31:47.606Z,10.97
2022-08-14T05:34:14.411Z,11.65
2022-08-14T05:36:43.094Z,11.43
2022-08-14T05:39:17.556Z,11.63
2022-08-14T05:41:52.592Z,12.32
2022-08-14T05:44:21.107Z,14.47
2022-08-14T05:46:48.890Z,11.73
2022-08-14T05:49:16.515Z,15.05
2022-08-14T05:51:46.735Z,12.60
2022-08-14T05:54:26.917Z,10.48
2022-08-14T05:56:54.340Z,10.97
2022-08-14T05:59:36.826Z,10.63
2022-08-14T06:02:07.659Z,12.40
2022-08-14T06:04:37.367Z,11.18
2022-08-14T06:07:04.390Z,11.20
2022-08-14T06:09:35.961Z,10.83
2022-08-14T06:12:09.458Z,11.82
2022-08-14T06:14:37.848Z,12.43
2022-08-14T06:17:06.369Z,12.52
2022-08-14T06:19:33.189Z,11.90
2022-08-14T06:21:59.977Z,12.67
2022-08-14T06:24:30.443Z,10.88
2022-08-14T06:27:04.611Z,11.90
2022-08-14T06:29:34.964Z,12.00
2022-08-14T06:32:38.434Z,14.48
2022-08-14T06:35:03.967Z,14.97
2022-08-14T06:37:46.901Z,13.90
2022-08-14T06:40:27.748Z,12.00
2022-08-14T06:43:03.685Z,12.90
2022-08-14T06:45:35.168Z,12.30
2022-08-14T06:48:06.283Z,11.03
2022-08-14T06:50:39.918Z,12.25
2022-08-14T06:53:07.359Z,11.32
2022-08-14T06:55:34.423Z,13.50
2022-08-14T06:58:04.439Z,10.75
2022-08-14T07:00:32.849Z,10.53
2022-08-14T07:03:19.353Z,11.13
2022-08-14T07:05:57.861Z,14.13
2022-08-14T07:08:31.446Z,11.75
2022-08-14T07:11:04.328Z,14.07
2022-08-14T07:13:32.690Z,11.30
2022-08-14T07:16:00.588Z,10.00
2022-08-14T07:18:34.308Z,10.13
2022-08-14T07:21:03.161Z,13.77
2022-08-14T07:23:30.256Z,13.45
2022-08-14T07:25:59.413Z,10.13
2022-08-14T07:28:32.351Z,12.50
2022-08-14T07:31:04.866Z,12.10
2022-08-14T07:33:36.682Z,10.65
2022-08-14T07:36:26.353Z,13.55
2022-08-14T07:38:53.749Z,11.60
2022-08-14T07:41:20.663Z,13.07
2022-08-14T07:43:55.733Z,10.90
2022-08-14T07:46:28.494Z,13.38
2022-08-14T07:48:56.907Z,12.50
2022-08-14T07:51:24.037Z,12.80
2022-08-14T07:53:56.911Z,14.25
2022-08-14T07:56:47.807Z,12.32
2022-08-14T07:59:12.731Z,14.30
2022-08-14T08:01:48.299Z,9.95
2022-08-14T08:04:27.264Z,10.73
2022-08-14T08:06:54.951Z,13.25
2022-08-14T08:09:29.843Z,12.93
2022-08-14T08:12:04.998Z,9.68
2022-08-14T08:14:56.483Z,11.13
2022-08-14T08:17:23.658Z,9.60
2022-08-14T08:19:51.659Z,11.10
2022-08-14T08:22:19.949Z,12.02
2022-08-14T08:24:46.690Z,9.27
2022-08-14T08:27:19.825Z,11.75
2022-08-14T08:29:50.645Z,10.77
2022-08-14T08:32:18.447Z,10.10
2022-08-14T08:34:47.099Z,10.68
2022-08-14T08:37:14.772Z,10.68
2022-08-14T08:40:03.248Z,8.50
2022-08-14T08:42:44.883Z,9.97
2022-08-14T08:45:17.335Z,10.13
2022-08-14T08:47:45.343Z,10.05
2022-08-14T08:50:23.181Z,8.25
2022-08-14T08:53:02.732Z,8.50
2022-08-14T08:56:07.117Z,12.83
2022-08-14T08:58:37.866Z,10.13
2022-08-14T09:01:06.116Z,7.45
2022-08-14T09:03:37.821Z,13.70
2022-08-14T09:06:53.855Z,8.55
2022-08-14T09:08:54.191Z,8.87
2022-08-14T09:11:24.349Z,9.02
2022-08-14T09:13:52.621Z,10.18
2022-08-14T09:16:25.975Z,7.25
2022-08-14T09:18:54.077Z,9.63
2022-08-14T09:21:24.209Z,11.43
2022-08-14T09:24:28.368Z,10.52
2022-08-14T09:26:41.995Z,8.10
2022-08-14T09:29:13.289Z,9.82
2022-08-14T09:31:52.871Z,9.07
2022-08-14T09:34:27.882Z,7.40
2022-08-14T09:37:12.024Z,7.30
2022-08-14T09:40:11.252Z,11.57
2022-08-14T09:43:02.686Z,9.23
2022-08-14T09:45:40.338Z,8.05
2022-08-14T09:48:27.705Z,9.47
2022-08-14T09:54:19.207Z,6.78
2022-08-14T09:56:32.779Z,7.72
2022-08-14T09:59:15.287Z,7.25
2022-08-14T10:01:43.765Z,6.07
2022-08-14T10:04:50.108Z,7.10
2022-08-14T10:07:17.075Z,7.47
2022-08-14T10:10:00.146Z,6.22
2022-08-14T10:12:48.541Z,7.63
2022-08-14T10:15:22.129Z,8.37
2022-08-14T10:18:02.431Z,6.85
2022-08-14T10:20:44.991Z,7.40
2022-08-14T10:23:18.028Z,7.35
2022-08-14T10:26:07.081Z,6.50
2022-08-14T10:29:17.731Z,5.73
2022-08-14T10:31:45.018Z,6.05
2022-08-14T10:34:18.421Z,5.65
2022-08-14T10:36:49.925Z,6.00
2022-08-14T10:39:26.032Z,5.50
2022-08-14T10:42:18.245Z,7.17
2022-08-14T10:44:49.262Z,4.55
2022-08-14T10:47:39.890Z,5.00
2022-08-14T10:50:07.790Z,6.15
2022-08-14T10:52:42.505Z,7.88
2022-08-14T10:55:19.462Z,5.43
2022-08-14T10:57:53.617Z,5.88
2022-08-14T11:00:30.036Z,6.75
2022-08-14T11:03:20.038Z,5.93
2022-08-14T11:05:56.064Z,6.15
2022-08-14T11:08:33.877Z,5.60
2022-08-14T11:11:04.008Z,6.13
2022-08-14T11:13:31.928Z,4.07
2022-08-14T11:16:01.310Z,5.93
2022-08-14T11:18:35.754Z,6.80
2022-08-14T11:21:08.257Z,9.50
2022-08-14T11:23:43.802Z,5.30
2022-08-14T11:26:12.030Z,4.93
2022-08-14T11:28:47.873Z,5.70
2022-08-14T11:31:25.592Z,5.07
2022-08-14T11:33:55.424Z,5.33
2022-08-14T11:36:35.060Z,4.85
2022-08-14T11:39:33.973Z,5.57
2022-08-14T11:43:07.793Z,4.47
2022-08-14T11:44:59.883Z,4.43
2022-08-14T11:47:35.094Z,5.10
2022-08-14T11:50:33.394Z,5.47
2022-08-14T11:53:07.068Z,5.07
2022-08-14T11:55:38.424Z,5.45
2022-08-14T11:58:10.451Z,5.00
2022-08-14T12:00:53.448Z,3.70
2022-08-14T12:03:37.461Z,4.22
2022-08-14T12:06:09.575Z,4.40
2022-08-14T12:08:56.300Z,4.85
2022-08-14T12:11:38.173Z,3.72
2022-08-14T12:14:13.512Z,3.93
2022-08-14T12:17:03.368Z,5.47
2022-08-14T12:19:33.569Z,3.40
2022-08-14T12:22:02.498Z,5.60
2022-08-14T12:24:35.704Z,3.53
2022-08-14T12:27:04.083Z,6.50
2022-08-14T12:29:32.009Z,4.38
2022-08-14T12:32:06.607Z,5.85
2022-08-14T12:34:37.394Z,5.15
2022-08-14T12:37:05.781Z,4.50
2022-08-14T12:39:40.189Z,4.60
2022-08-14T12:42:08.331Z,4.40
2022-08-14T12:44:42.841Z,4.85
2022-08-14T12:47:13.607Z,5.72
2022-08-14T12:49:52.431Z,3.72
2022-08-14T12:52:41.720Z,3.30
2022-08-14T12:55:21.052Z,4.63
2022-08-14T12:57:53.378Z,4.00
2022-08-14T13:00:25.463Z,3.70
2022-08-14T13:02:55.901Z,6.22
2022-08-14T13:05:35.064Z,5.37
2022-08-14T13:08:05.908Z,3.58
2022-08-14T13:10:54.507Z,3.58
2022-08-14T13:13:23.662Z,3.00
2022-08-14T13:15:57.478Z,3.50
2022-08-14T13:18:29.606Z,4.10
2022-08-14T13:20:59.793Z,4.20
2022-08-14T13:23:36.371Z,3.45
2022-08-14T13:26:04.728Z,5.78
2022-08-14T13:28:33.844Z,3.80
2022-08-14T13:31:10.958Z,3.73
2022-08-14T13:33:40.648Z,3.83
2022-08-14T13:36:09.250Z,4.55
2022-08-14T13:38:36.950Z,6.57
2022-08-14T13:41:04.183Z,3.53
2022-08-14T13:43:36.581Z,3.90
2022-08-14T13:46:04.042Z,4.30
2022-08-14T13:48:33.158Z,3.85
2022-08-14T13:51:07.814Z,5.88
2022-08-14T13:54:06.896Z,4.57
2022-08-14T13:56:42.292Z,4.23
2022-08-14T13:59:09.689Z,3.97
2022-08-14T14:01:42.809Z,6.75
2022-08-14T14:04:19.279Z,4.72
2022-08-14T14:06:49.725Z,4.57
2022-08-14T14:09:32.712Z,7.00
2022-08-14T14:12:07.977Z,5.57
2022-08-14T14:14:55.613Z,4.30
2022-08-14T14:17:24.928Z,6.88
2022-08-14T14:19:57.574Z,4.25
2022-08-14T14:22:35.973Z,5.53
2022-08-14T14:25:19.259Z,4.95
2022-08-14T14:27:53.220Z,5.65
2022-08-14T14:30:51.693Z,5.55
2022-08-14T14:33:28.896Z,5.93
2022-08-14T14:35:59.214Z,4.60
2022-08-14T14:38:30.744Z,5.95
2022-08-14T14:41:00.821Z,6.28
2022-08-14T14:43:29.025Z,7.30
2022-08-14T14:45:57.017Z,7.55
2022-08-14T14:48:31.431Z,4.67
2022-08-14T14:51:01.417Z,5.53
2022-08-14T14:53:39.376Z,5.85
2022-08-14T14:56:47.736Z,5.00
2022-08-14T14:58:56.572Z,5.30
2022-08-14T15:01:23.828Z,4.83
2022-08-14T15:03:54.149Z,5.78
2022-08-14T15:06:22.350Z,4.80
2022-08-14T15:09:00.015Z,4.72
2022-08-14T15:11:30.111Z,5.32
2022-08-14T15:13:57.605Z,5.83
2022-08-14T15:16:24.776Z,5.13
2022-08-14T15:18:52.869Z,8.15
2022-08-14T15:21:19.971Z,6.53
2022-08-14T15:23:50.530Z,6.72
2022-08-14T15:26:23.843Z,5.60
2022-08-14T15:29:00.190Z,5.13
2022-08-14T15:31:30.201Z,5.10
2022-08-14T15:34:43.570Z,6.30
2022-08-14T15:36:59.208Z,5.50
2022-08-14T15:39:29.589Z,4.90
2022-08-14T15:42:02.750Z,8.27
2022-08-14T15:44:34.311Z,7.20
2022-08-14T15:47:08.813Z,5.38
2022-08-14T15:49:37.230Z,6.35
2022-08-14T15:52:07.188Z,7.10
2022-08-14T15:54:35.258Z,6.13
2022-08-14T15:57:06.286Z,6.45
2022-08-14T15:59:55.444Z,5.53
2022-08-14T16:02:24.381Z,5.03
2022-08-14T16:04:55.262Z,6.53
2022-08-14T16:07:27.184Z,5.72
2022-08-14T16:10:18.545Z,7.18
2022-08-14T16:12:47.589Z,6.93
2022-08-14T16:15:22.404Z,5.90
2022-08-14T16:17:52.781Z,6.17
2022-08-14T16:20:42.185Z,4.97
2022-08-14T16:23:11.686Z,5.97
2022-08-14T16:25:42.392Z,5.80
2022-08-14T16:28:26.966Z,6.15
2022-08-14T16:30:55.343Z,7.13
2022-08-14T16:33:28.102Z,6.35
2022-08-14T16:36:30.088Z,5.43
2022-08-14T16:39:00.663Z,5.10
2022-08-14T16:41:28.461Z,5.38
2022-08-14T16:44:31.821Z,8.70
2022-08-14T16:47:03.914Z,5.78
2022-08-14T16:50:02.985Z,7.18
2022-08-14T16:52:25.667Z,6.38
2022-08-14T16:55:07.794Z,5.82
2022-08-14T16:57:46.707Z,8.13
2022-08-14T17:00:28.659Z,7.85
2022-08-14T17:03:08.594Z,6.63
2022-08-14T17:05:41.678Z,6.10
2022-08-14T17:08:31.782Z,6.20
2022-08-14T17:11:02.167Z,7.23
2022-08-14T17:13:58.370Z,7.93
2022-08-14T17:16:25.959Z,7.57
2022-08-14T17:19:00.860Z,9.75
2022-08-14T17:21:32.449Z,8.13
2022-08-14T17:24:58.317Z,8.63
2022-08-14T17:26:55.212Z,6.72
2022-08-14T17:29:56.522Z,6.95
2022-08-14T17:32:56.891Z,7.30
2022-08-14T17:35:58.002Z,6.50
2022-08-14T17:38:39.048Z,7.70
2022-08-14T17:41:22.884Z,8.25
2022-08-14T17:43:55.238Z,7.50
2022-08-14T17:46:43.929Z,14.02
2022-08-14T17:49:16.739Z,6.30
2022-08-14T17:52:17.574Z,8.70
2022-08-14T17:54:52.879Z,9.55
2022-08-14T17:57:28.361Z,6.97
2022-08-14T17:59:56.955Z,6.07
2022-08-14T18:02:30.962Z,7.53
2022-08-14T18:05:00.178Z,7.27
2022-08-14T18:07:59.737Z,8.27
2022-08-14T18:10:56.163Z,6.63
2022-08-14T18:13:07.980Z,7.43
2022-08-14T18:15:39.185Z,6.13
2022-08-14T18:18:11.267Z,8.60
2022-08-14T18:21:42.153Z,6.28
2022-08-14T18:23:28.212Z,7.57
2022-08-14T18:25:57.295Z,8.15
2022-08-14T18:28:45.045Z,6.70
2022-08-14T18:31:22.641Z,6.93
2022-08-14T18:34:31.563Z,7.22
2022-08-14T18:37:18.089Z,7.82
2022-08-14T18:40:03.599Z,7.70
2022-08-14T18:42:34.873Z,7.75
2022-08-14T18:45:12.268Z,7.43
2022-08-14T18:50:32.334Z,9.20
2022-08-14T18:53:09.130Z,9.65
2022-08-14T18:55:53.544Z,9.90
2022-08-14T18:58:45.326Z,8.30
2022-08-14T19:01:23.638Z,11.70
2022-08-14T19:03:52.038Z,10.13
2022-08-14T19:06:19.582Z,9.70
2022-08-14T19:08:49.645Z,7.60
2022-08-14T19:11:32.398Z,8.83
2022-08-14T19:14:04.972Z,11.05
2022-08-14T19:16:37.140Z,9.13
2022-08-14T19:19:09.240Z,11.05
2022-08-14T19:21:55.300Z,12.30
2022-08-14T19:24:43.593Z,9.30
2022-08-14T19:27:23.510Z,8.60
2022-08-14T19:30:11.007Z,9.40
2022-08-14T19:32:52.333Z,7.05
2022-08-14T19:35:24.783Z,8.73
2022-08-14T19:38:32.293Z,8.80
2022-08-14T19:41:01.653Z,9.30
2022-08-14T19:43:55.968Z,7.53
2022-08-14T19:46:38.805Z,8.65
2022-08-14T19:49:08.786Z,7.30
2022-08-14T19:51:43.559Z,8.57
2022-08-14T19:54:13.237Z,9.85
2022-08-14T19:56:45.011Z,8.98
2022-08-14T19:59:18.149Z,8.25
2022-08-14T20:01:49.633Z,10.68
2022-08-14T20:04:47.636Z,8.23
2022-08-14T20:07:58.806Z,7.70
2022-08-14T20:11:08.565Z,9.80
2022-08-14T20:13:14.362Z,9.23
2022-08-14T20:15:51.093Z,8.82
2022-08-14T20:18:49.019Z,8.93
2022-08-14T20:21:14.889Z,12.15
2022-08-14T20:23:41.863Z,8.02
2022-08-14T20:26:31.176Z,8.38
2022-08-14T20:29:04.813Z,8.27
2022-08-14T20:31:36.960Z,9.53
2022-08-14T20:34:18.593Z,8.27
2022-08-14T20:37:11.602Z,8.88
2022-08-14T20:39:45.012Z,8.35
2022-08-14T20:42:39.598Z,7.90
2022-08-14T20:45:21.393Z,10.93
2022-08-14T20:48:01.865Z,9.52
2022-08-14T20:50:35.011Z,7.38
2022-08-14T20:53:27.858Z,8.63
2022-08-14T20:56:04.625Z,11.40
2022-08-14T20:58:50.790Z,8.00
2022-08-14T21:01:18.527Z,7.80
2022-08-14T21:03:56.336Z,7.72
2022-08-14T21:06:30.713Z,7.38
2022-08-14T21:10:04.597Z,8.98
2022-08-14T21:12:34.817Z,7.70
2022-08-14T21:14:56.956Z,8.90
2022-08-14T21:17:25.352Z,8.38
2022-08-14T21:19:53.823Z,8.27
2022-08-14T21:22:20.777Z,9.35
2022-08-14T21:24:48.348Z,10.13
2022-08-14T21:27:20.266Z,10.77
2022-08-14T21:29:55.984Z,8.70
2022-08-14T21:32:36.514Z,9.90
2022-08-14T21:35:17.388Z,9.50
2022-08-14T21:37:48.037Z,8.63
2022-08-14T21:40:40.540Z,8.25
2022-08-14T21:43:17.925Z,7.93
2022-08-14T21:45:53.587Z,9.52
2022-08-14T21:48:26.542Z,10.23
2022-08-14T21:51:02.075Z,8.73
2022-08-14T21:53:59.211Z,8.15
2022-08-14T21:56:38.536Z,9.38
2022-08-14T21:59:17.748Z,11.90
2022-08-14T22:02:00.329Z,8.25
2022-08-14T22:04:40.376Z,8.70
2022-08-14T22:07:11.243Z,9.32
2022-08-14T22:09:42.733Z,8.20
2022-08-14T22:12:10.942Z,9.73
2022-08-14T22:14:57.707Z,8.60
2022-08-14T22:17:24.509Z,8.57
2022-08-14T22:19:58.994Z,8.38
2022-08-14T22:22:26.600Z,9.80
2022-08-14T22:25:00.253Z,9.82
2022-08-14T22:27:32.198Z,11.95
2022-08-14T22:30:00.156Z,9.73
2022-08-14T22:32:55.981Z,9.80
2022-08-14T22:35:16.096Z,12.32
2022-08-14T22:37:44.875Z,9.30
2022-08-14T22:40:46.534Z,11.00
2022-08-14T22:43:08.451Z,11.67
2022-08-14T22:45:37.986Z,10.88
2022-08-14T22:48:10.977Z,10.52
2022-08-14T22:50:48.731Z,9.23
2022-08-14T22:53:21.032Z,12.63
2022-08-14T22:55:52.340Z,9.30
2022-08-14T22:58:30.627Z,10.75
2022-08-14T23:01:02.392Z,9.57
2022-08-14T23:03:31.248Z,9.70
2022-08-14T23:06:02.224Z,10.90
2022-08-14T23:08:58.198Z,10.00
2022-08-14T23:11:16.362Z,9.57
2022-08-14T23:13:46.089Z,10.68
2022-08-14T23:16:20.141Z,9.43
2022-08-14T23:18:53.501Z,9.93
2022-08-14T23:21:22.096Z,10.93
2022-08-14T23:23:54.876Z,9.18
2022-08-14T23:26:48.551Z,10.75
2022-08-14T23:29:15.918Z,10.38
2022-08-14T23:31:45.166Z,10.52
2022-08-14T23:34:20.595Z,11.83
2022-08-14T23:36:55.687Z,10.05
2022-08-14T23:39:32.530Z,9.77
2022-08-14T23:42:04.862Z,10.77
2022-08-14T23:44:35.614Z,9.70
2022-08-14T23:47:10.816Z,10.03
2022-08-14T23:50:00.091Z,8.85
2022-08-14T23:52:56.360Z,9.10
2022-08-14T23:55:14.416Z,11.40
2022-08-14T23:57:43.978Z,9.02
